Time;durP1;ratioP1;P1;durP2;ratioP2;P2;SDS_P1;SDS_P2;PMS_P1;PMS_P2;Temp;Humidity;BMP_temperature;BMP_pressure;BME280_temperature;BME280_humidity;BME280_pressure;Samples;Min_cycle;Max_cycle;Signal;HPM_P1;HPM_P2
2022/04/13 00:01:52;;;;;;;3.88;1.25;;;;;;;15.32;31.76;102052.81;5034945;28;20431;-64
2022/04/13 00:04:19;;;;;;;1.90;0.70;;;;;;;15.28;31.81;102057.00;5042782;28;20500;-63
2022/04/13 00:06:45;;;;;;;3.47;0.80;;;;;;;15.00;31.79;102041.00;5043311;28;20078;-61
2022/04/13 00:09:11;;;;;;;2.47;0.68;;;;;;;15.01;31.68;102056.16;5039700;28;20033;-62
2022/04/13 00:11:37;;;;;;;3.40;0.95;;;;;;;15.01;32.34;102056.97;5045281;28;20025;-59
2022/04/13 00:14:04;;;;;;;3.67;0.70;;;;;;;14.79;32.55;102063.56;5051014;28;20029;-66
2022/04/13 00:16:30;;;;;;;3.00;1.00;;;;;;;14.67;33.59;102059.81;5046933;28;20075;-61
2022/04/13 00:18:56;;;;;;;3.58;0.73;;;;;;;14.58;32.46;102066.41;5034295;28;20021;-63
2022/04/13 00:21:23;;;;;;;2.65;0.80;;;;;;;14.40;32.32;102070.47;5043625;28;20018;-62
2022/04/13 00:23:49;;;;;;;3.13;1.17;;;;;;;14.43;32.80;102067.34;5052560;28;20027;-62
2022/04/13 00:26:15;;;;;;;4.32;0.93;;;;;;;14.24;31.70;102070.81;5049509;28;20049;-55
2022/04/13 00:28:41;;;;;;;7.63;1.08;;;;;;;13.92;30.77;102067.75;5034521;28;20461;-54
2022/04/13 00:31:08;;;;;;;4.85;0.93;;;;;;;13.99;32.11;102079.41;5052974;28;20037;-55
2022/04/13 00:33:34;;;;;;;3.40;1.00;;;;;;;13.71;32.74;102081.25;5043112;28;20025;-53
2022/04/13 00:36:00;;;;;;;2.03;0.85;;;;;;;13.77;33.35;102080.50;5032131;28;20060;-53
2022/04/13 00:38:26;;;;;;;4.28;1.40;;;;;;;13.55;33.82;102077.03;5047119;28;20025;-54
2022/04/13 00:40:53;;;;;;;3.65;0.90;;;;;;;13.63;34.52;102073.34;5044831;28;20029;-53
2022/04/13 00:43:19;;;;;;;6.40;1.00;;;;;;;13.70;33.36;102080.44;5033454;28;20096;-51
2022/04/13 00:45:46;;;;;;;4.75;1.17;;;;;;;13.77;33.74;102069.75;5040347;28;20473;-53
2022/04/13 00:48:31;;;;;;;4.32;1.05;;;;;;;13.68;34.35;102076.28;5053363;28;20044;-51
2022/04/13 00:50:58;;;;;;;2.60;1.13;;;;;;;13.88;34.33;102074.56;5052842;28;20032;-51
2022/04/13 00:53:25;;;;;;;2.83;1.00;;;;;;;13.58;34.32;102073.94;5053256;28;20033;-52
2022/04/13 00:55:55;;;;;;;5.85;1.27;;;;;;;13.39;35.68;102066.56;5052490;28;20074;-51
2022/04/13 00:58:28;;;;;;;3.10;0.98;;;;;;;13.39;36.45;102064.69;5043028;28;20029;-51
2022/04/13 01:00:55;;;;;;;4.53;1.40;;;;;;;13.30;36.15;102079.31;5040864;28;20021;-51
2022/04/13 01:03:25;;;;;;;2.05;0.80;;;;;;;13.12;36.79;102068.16;5050868;28;20068;-49
2022/04/13 01:05:53;;;;;;;4.43;0.90;;;;;;;12.89;37.36;102071.88;5051638;28;20029;-55
2022/04/13 01:08:20;;;;;;;3.75;1.15;;;;;;;12.83;38.45;102053.00;5052063;28;20128;-55
2022/04/13 01:10:49;;;;;;;4.30;1.75;;;;;;;12.81;38.42;102082.72;5052471;28;20057;-51
2022/04/13 01:13:17;;;;;;;7.03;0.82;;;;;;;12.87;37.43;102068.50;5052712;28;20036;-49
2022/04/13 01:15:43;;;;;;;4.63;1.48;;;;;;;12.74;38.30;102078.31;5052901;28;20024;-49
2022/04/13 01:18:11;;;;;;;6.22;1.08;;;;;;;12.82;38.31;102070.13;5052293;28;20116;-53
2022/04/13 01:20:39;;;;;;;4.78;1.80;;;;;;;12.75;38.69;102075.41;5052881;28;20464;-50
2022/04/13 01:23:07;;;;;;;5.90;1.73;;;;;;;12.69;38.49;102068.94;5051214;28;20051;-51
2022/04/13 01:25:34;;;;;;;2.90;1.00;;;;;;;12.83;38.60;102069.94;5051516;28;20112;-53
2022/04/13 01:28:00;;;;;;;6.13;1.00;;;;;;;12.84;38.46;102060.84;5033977;28;20105;-52
2022/04/13 01:30:27;;;;;;;5.20;1.20;;;;;;;12.71;39.11;102070.63;5043592;28;20037;-53
2022/04/13 01:32:53;;;;;;;10.90;1.02;;;;;;;12.48;39.17;102068.09;5052560;28;20099;-53
2022/04/13 01:35:23;;;;;;;6.07;0.82;;;;;;;12.46;39.57;102062.91;5046591;23;20147;-51
2022/04/13 01:37:49;;;;;;;2.33;0.80;;;;;;;12.46;38.70;102073.66;5043274;28;20039;-52
2022/04/13 01:40:16;;;;;;;3.15;0.93;;;;;;;12.32;38.62;102069.13;5050468;28;20103;-52
2022/04/13 01:42:44;;;;;;;1.10;0.70;;;;;;;12.29;39.04;102058.78;5048826;28;20536;-52
2022/04/13 01:45:10;;;;;;;5.95;1.05;;;;;;;12.23;39.38;102071.09;5011175;28;20405;-52
2022/04/13 01:47:38;;;;;;;4.10;0.80;;;;;;;12.34;39.84;102067.09;5051219;28;20036;-49
2022/04/13 01:50:05;;;;;;;5.90;1.02;;;;;;;12.20;39.11;102070.63;5039065;28;20361;-52
2022/04/13 01:52:31;;;;;;;2.28;0.98;;;;;;;12.11;39.37;102067.22;5049634;28;20507;-52
2022/04/13 01:54:57;;;;;;;3.95;0.70;;;;;;;11.99;39.10;102079.41;5026097;28;20029;-54
2022/04/13 01:57:23;;;;;;;5.20;0.90;;;;;;;11.92;39.26;102078.50;5018793;28;20080;-56
2022/04/13 01:59:50;;;;;;;3.95;1.08;;;;;;;11.82;39.55;102073.41;5019178;28;20416;-56
2022/04/13 02:02:16;;;;;;;2.30;0.93;;;;;;;11.68;39.64;102077.72;5024276;28;20044;-54
2022/04/13 02:04:42;;;;;;;4.72;1.00;;;;;;;11.63;40.09;102074.75;5017319;28;20476;-56
2022/04/13 02:07:09;;;;;;;2.15;0.55;;;;;;;11.64;40.06;102087.13;5032236;28;20033;-51
2022/04/13 02:09:35;;;;;;;2.50;0.95;;;;;;;11.50;40.26;102090.63;5025973;28;20026;-48
2022/04/13 02:12:01;;;;;;;6.80;0.85;;;;;;;11.34;40.54;102097.81;5025108;28;20025;-47
2022/04/13 02:14:27;;;;;;;2.28;1.05;;;;;;;11.40;41.31;102092.72;5027367;28;20083;-47
2022/04/13 02:16:53;;;;;;;4.95;0.90;;;;;;;11.46;41.00;102097.38;5013695;28;20025;-49
2022/04/13 02:19:20;;;;;;;2.95;0.90;;;;;;;11.36;41.05;102085.03;5016159;28;20036;-48
2022/04/13 02:21:46;;;;;;;3.92;0.95;;;;;;;11.28;41.30;102093.16;5031612;28;20461;-47
2022/04/13 02:24:14;;;;;;;3.47;1.05;;;;;;;11.30;41.67;102096.47;5031609;28;20033;-50
2022/04/13 02:26:40;;;;;;;5.00;1.10;;;;;;;11.11;41.80;102096.97;5015554;28;20022;-47
2022/04/13 02:29:07;;;;;;;4.93;1.30;;;;;;;11.06;42.08;102096.69;5030433;28;20063;-49
2022/04/13 02:31:33;;;;;;;5.28;1.05;;;;;;;11.00;42.49;102094.72;5021997;28;20061;-47
2022/04/13 02:33:59;;;;;;;4.07;0.90;;;;;;;11.00;42.53;102102.75;5011369;28;20089;-47
2022/04/13 02:36:25;;;;;;;3.08;1.05;;;;;;;11.13;42.02;102094.94;5013774;28;20033;-47
2022/04/13 02:38:53;;;;;;;5.53;1.58;;;;;;;11.03;42.56;102094.34;5024149;28;20503;-47
2022/04/13 02:41:19;;;;;;;1.80;0.70;;;;;;;10.98;42.83;102094.88;5012228;28;20018;-47
2022/04/13 02:43:46;;;;;;;2.85;1.02;;;;;;;10.92;42.49;102092.06;5011578;28;20101;-48
2022/04/13 02:46:13;;;;;;;6.03;1.10;;;;;;;10.67;43.33;102089.56;5011647;28;20030;-49
2022/04/13 02:48:39;;;;;;;3.67;1.20;;;;;;;10.69;43.59;102097.41;5028213;28;20065;-49
2022/04/13 02:51:05;;;;;;;3.03;1.15;;;;;;;10.70;43.57;102099.91;5031688;28;20108;-49
2022/04/13 02:53:32;;;;;;;4.45;0.95;;;;;;;10.58;43.51;102101.31;5017557;28;20312;-51
2022/04/13 02:55:59;;;;;;;3.30;1.20;;;;;;;10.64;43.35;102111.31;5025633;28;20037;-47
2022/04/13 02:58:25;;;;;;;3.65;0.85;;;;;;;10.50;43.95;102110.22;5024123;28;20025;-49
2022/04/13 03:00:51;;;;;;;7.30;1.40;;;;;;;10.54;44.28;102114.19;5026601;28;20124;-49
2022/04/13 03:03:21;;;;;;;2.65;1.00;;;;;;;10.54;43.30;102110.69;5018466;28;20113;-46
2022/04/13 03:05:47;;;;;;;4.03;1.30;;;;;;;10.59;43.56;102102.97;5011857;28;20076;-50
2022/04/13 03:08:14;;;;;;;4.55;1.00;;;;;;;10.45;43.56;102106.41;5011776;28;20030;-49
2022/04/13 03:10:40;;;;;;;5.68;1.05;;;;;;;10.42;44.29;102106.75;5015811;28;20100;-50
2022/04/13 03:13:06;;;;;;;3.42;1.10;;;;;;;10.30;44.69;102107.13;5031046;28;20122;-50
2022/04/13 03:15:32;;;;;;;3.67;1.08;;;;;;;10.10;45.05;102105.81;5031489;28;20033;-51
2022/04/13 03:17:58;;;;;;;4.35;0.80;;;;;;;10.16;44.76;102104.28;5031272;28;20052;-47
2022/04/13 03:20:25;;;;;;;5.68;1.65;;;;;;;9.95;45.14;102110.22;5011686;28;20354;-49
2022/04/13 03:22:51;;;;;;;3.72;1.42;;;;;;;9.83;46.33;102111.56;5011529;28;20018;-47
2022/04/13 03:25:17;;;;;;;4.50;1.40;;;;;;;9.69;46.24;102108.59;5012157;28;20022;-48
2022/04/13 03:27:44;;;;;;;4.85;1.10;;;;;;;9.64;47.26;102118.13;5015486;28;20109;-46
2022/04/13 03:30:16;;;;;;;6.78;1.20;;;;;;;9.65;46.94;102120.63;5031558;28;20029;-47
2022/04/13 03:32:43;;;;;;;4.53;1.02;;;;;;;9.64;46.92;102126.13;5034588;28;20041;-46
2022/04/13 03:35:11;;;;;;;6.10;1.35;;;;;;;9.69;47.78;102129.97;5025086;28;20056;-48
2022/04/13 03:37:40;;;;;;;5.00;1.30;;;;;;;9.65;48.69;102135.81;5025443;28;20069;-46
2022/04/13 03:40:10;;;;;;;4.47;1.67;;;;;;;9.49;48.97;102137.53;5015769;28;20026;-48
2022/04/13 03:42:40;;;;;;;5.25;1.35;;;;;;;9.63;49.27;102149.38;5029973;28;20492;-46
2022/04/13 03:45:09;;;;;;;6.30;1.58;;;;;;;9.63;49.79;102154.72;5028473;28;20037;-46
2022/04/13 03:47:35;;;;;;;8.38;1.77;;;;;;;9.52;51.01;102155.88;5031655;28;20037;-46
2022/04/13 03:50:02;;;;;;;5.40;1.38;;;;;;;9.44;51.23;102165.75;5014972;28;20022;-49
2022/04/13 03:52:34;;;;;;;4.00;1.38;;;;;;;9.44;51.05;102165.75;5018474;28;20140;-50
2022/04/13 03:55:04;;;;;;;6.07;1.25;;;;;;;9.54;51.46;102174.41;5026688;28;20032;-48
2022/04/13 03:57:31;;;;;;;10.27;1.40;;;;;;;9.48;51.45;102169.72;5015093;28;20611;-50
2022/04/13 03:59:57;;;;;;;7.90;1.70;;;;;;;9.52;50.85;102168.41;5028105;28;20128;-45
2022/04/13 04:02:24;;;;;;;4.93;1.50;;;;;;;9.40;51.16;102161.72;5031511;28;20036;-46
2022/04/13 04:04:50;;;;;;;7.22;1.60;;;;;;;9.36;52.04;102160.38;5043685;28;20029;-50
2022/04/13 04:07:17;;;;;;;5.07;1.73;;;;;;;9.36;52.46;102173.75;5041162;28;20041;-47
2022/04/13 04:09:44;;;;;;;6.30;1.65;;;;;;;9.31;51.88;102158.19;5014395;28;20104;-47
2022/04/13 04:12:10;;;;;;;5.13;1.35;;;;;;;9.36;52.54;102168.41;5014783;28;20036;-51
2022/04/13 04:14:37;;;;;;;5.22;1.70;;;;;;;9.44;52.06;102168.41;5014356;28;20026;-50
2022/04/13 04:17:03;;;;;;;5.82;1.40;;;;;;;9.38;52.38;102180.56;5014586;28;20474;-49
2022/04/13 04:19:29;;;;;;;5.30;1.25;;;;;;;9.39;52.68;102184.13;5025159;28;20112;-48
2022/04/13 04:21:56;;;;;;;7.82;1.92;;;;;;;9.28;53.32;102185.25;5023704;28;20028;-47
2022/04/13 04:24:23;;;;;;;7.03;1.70;;;;;;;9.15;54.09;102190.22;5014006;28;20026;-48
2022/04/13 04:26:49;;;;;;;4.47;1.60;;;;;;;9.11;53.00;102187.06;5014531;28;20092;-47
2022/04/13 04:29:15;;;;;;;4.68;1.40;;;;;;;9.10;53.95;102188.03;5014313;28;20052;-46
2022/04/13 04:31:50;;;;;;;8.10;1.88;;;;;;;9.06;53.69;102192.06;5015192;28;20108;-47
2022/04/13 04:34:19;;;;;;;6.22;1.40;;;;;;;8.98;54.31;102187.50;5033657;28;20065;-48
2022/04/13 04:36:45;;;;;;;9.93;1.67;;;;;;;9.18;53.19;102193.41;5033158;28;20052;-48
2022/04/13 04:39:11;;;;;;;5.68;1.45;;;;;;;8.97;52.63;102190.34;5033089;28;20035;-50
2022/04/13 04:41:40;;;;;;;4.95;1.27;;;;;;;8.99;52.05;102191.00;5032301;28;20100;-50
2022/04/13 04:44:08;;;;;;;6.13;1.70;;;;;;;9.02;51.70;102188.03;5029660;28;20077;-48
2022/04/13 04:46:35;;;;;;;5.13;1.27;;;;;;;9.12;51.59;102194.06;5033760;28;20068;-50
2022/04/13 04:49:02;;;;;;;3.60;1.40;;;;;;;9.08;51.94;102190.06;5027718;28;20359;-51
2022/04/13 04:51:31;;;;;;;2.75;1.10;;;;;;;9.10;52.43;102195.22;5013624;28;20033;-48
2022/04/13 04:53:59;;;;;;;5.85;1.48;;;;;;;9.16;52.63;102190.09;5027836;28;20091;-47
2022/04/13 04:56:25;;;;;;;6.95;1.25;;;;;;;9.18;52.26;102200.59;5033531;28;20033;-46
2022/04/13 04:58:51;;;;;;;6.55;1.48;;;;;;;9.23;51.33;102195.59;5033706;28;20036;-47
2022/04/13 05:01:18;;;;;;;8.45;1.23;;;;;;;9.32;49.85;102204.44;5033525;28;20080;-50
2022/04/13 05:03:48;;;;;;;3.75;1.02;;;;;;;9.35;49.21;102204.97;5032889;28;20021;-51
2022/04/13 05:06:23;;;;;;;3.10;1.25;;;;;;;9.30;49.27;102214.47;5033785;28;20041;-48
2022/04/13 05:08:50;;;;;;;4.60;1.35;;;;;;;9.31;49.93;102213.47;5033125;28;20071;-50
2022/04/13 05:11:16;;;;;;;5.40;1.00;;;;;;;9.26;49.86;102212.13;5033036;28;20087;-50
2022/04/13 05:13:45;;;;;;;4.28;1.40;;;;;;;9.28;50.90;102209.31;5033062;28;20025;-48
2022/04/13 05:16:18;;;;;;;5.22;1.50;;;;;;;9.18;51.30;102219.31;5031665;28;20026;-49
2022/04/13 05:18:47;;;;;;;2.28;0.82;;;;;;;9.29;51.82;102215.50;5033381;28;20026;-49
2022/04/13 05:21:15;;;;;;;5.45;1.20;;;;;;;9.20;51.61;102223.47;5032856;28;20108;-50
2022/04/13 05:23:42;;;;;;;3.67;1.30;;;;;;;9.08;52.27;102219.44;5032562;28;20033;-51
2022/04/13 05:26:08;;;;;;;3.50;1.15;;;;;;;9.08;52.70;102214.09;5033014;28;20100;-49
2022/04/13 05:28:35;;;;;;;5.30;1.40;;;;;;;9.21;52.58;102222.47;5032753;28;20104;-47
2022/04/13 05:31:01;;;;;;;4.38;1.08;;;;;;;9.11;53.03;102224.47;5033093;28;20078;-48
2022/04/13 05:33:27;;;;;;;3.95;1.48;;;;;;;9.11;52.46;102215.63;5032663;28;20029;-48
2022/04/13 05:35:53;;;;;;;6.28;2.03;;;;;;;9.07;52.98;102215.09;5032938;28;20072;-47
2022/04/13 05:38:19;;;;;;;5.82;1.40;;;;;;;9.11;52.84;102215.63;5032613;28;20025;-47
2022/04/13 05:40:46;;;;;;;7.07;1.38;;;;;;;8.96;53.87;102220.72;5032828;28;20072;-48
2022/04/13 05:43:12;;;;;;;4.97;1.33;;;;;;;9.01;53.66;102215.75;5029528;28;20036;-47
2022/04/13 05:45:38;;;;;;;3.35;1.27;;;;;;;8.96;53.03;102210.06;5031875;28;20155;-50
2022/04/13 05:48:05;;;;;;;5.43;2.00;;;;;;;8.94;53.09;102214.72;5031942;28;20115;-46
2022/04/13 05:50:31;;;;;;;6.82;1.67;;;;;;;9.01;53.07;102215.75;5030820;28;20412;-48
2022/04/13 05:52:57;;;;;;;6.07;1.45;;;;;;;8.90;53.91;102210.69;5031041;28;20635;-49
2022/04/13 05:55:23;;;;;;;3.38;1.25;;;;;;;9.06;53.25;102207.25;5032227;28;20061;-47
2022/04/13 05:57:50;;;;;;;7.18;1.52;;;;;;;9.03;53.46;102210.22;5031480;28;20041;-50
2022/04/13 06:00:16;;;;;;;6.57;1.10;;;;;;;8.91;52.96;102207.03;5031757;28;20108;-47
2022/04/13 06:02:43;;;;;;;4.60;1.10;;;;;;;8.92;53.03;102211.38;5031109;28;20030;-51
2022/04/13 06:05:10;;;;;;;4.05;1.45;;;;;;;9.01;52.46;102215.75;5032334;28;20384;-47
2022/04/13 06:07:36;;;;;;;7.70;4.00;;;;;;;9.08;52.96;102218.59;5031310;28;20104;-47
2022/04/13 06:10:05;;;;;;;5.03;2.65;;;;;;;9.12;52.79;102215.44;5031295;28;20029;-47
2022/04/13 06:12:32;;;;;;;6.47;4.03;;;;;;;9.01;52.96;102222.94;5032891;28;20374;-48
2022/04/13 06:15:06;;;;;;;13.98;7.40;;;;;;;9.15;52.08;102223.13;5031057;28;20044;-51
2022/04/13 06:17:33;;;;;;;17.65;9.18;;;;;;;9.18;52.52;102230.81;5032088;28;20116;-48
2022/04/13 06:19:59;;;;;;;11.63;6.10;;;;;;;9.25;52.07;102237.19;5031364;28;20041;-50
2022/04/13 06:22:26;;;;;;;9.02;3.53;;;;;;;9.07;52.65;102227.63;5030963;28;20025;-46
2022/04/13 06:24:52;;;;;;;7.88;3.67;;;;;;;8.77;53.77;102237.00;5030970;28;20055;-47
2022/04/13 06:27:22;;;;;;;7.20;3.00;;;;;;;8.72;53.69;102233.00;5032237;28;20025;-50
2022/04/13 06:29:48;;;;;;;7.47;2.88;;;;;;;8.52;54.56;102228.88;5031151;28;20091;-48
2022/04/13 06:32:14;;;;;;;8.80;2.15;;;;;;;8.67;54.33;102237.97;5031946;28;20025;-49
2022/04/13 06:34:41;;;;;;;5.60;2.05;;;;;;;9.12;53.41;102239.50;5030285;28;20037;-46
2022/04/13 06:37:07;;;;;;;4.50;2.40;;;;;;;9.08;53.12;102232.78;5031711;28;20507;-51
2022/04/13 06:39:33;;;;;;;4.00;1.80;;;;;;;9.11;53.15;102237.00;5030906;28;20104;-49
2022/04/13 06:42:00;;;;;;;8.73;2.15;;;;;;;9.22;53.01;102232.19;5032066;28;20021;-46
2022/04/13 06:44:27;;;;;;;4.72;1.70;;;;;;;9.02;52.98;102238.78;5030915;28;20030;-47
2022/04/13 06:46:53;;;;;;;5.82;1.63;;;;;;;9.22;52.46;102245.53;5030606;28;20049;-51
2022/04/13 06:49:20;;;;;;;3.33;1.20;;;;;;;9.03;52.64;102236.94;5030963;28;20030;-49
2022/04/13 06:51:46;;;;;;;6.45;1.77;;;;;;;8.96;52.86;102242.09;5030685;28;20022;-47
2022/04/13 06:54:12;;;;;;;4.85;1.70;;;;;;;9.04;52.87;102247.44;5030843;28;20033;-47
2022/04/13 06:56:39;;;;;;;7.43;1.15;;;;;;;9.08;52.67;102243.47;5029715;28;20362;-47
2022/04/13 06:59:06;;;;;;;3.67;1.10;;;;;;;8.96;53.42;102253.63;5031639;28;20104;-47
2022/04/13 07:01:32;;;;;;;2.92;1.20;;;;;;;9.02;52.64;102249.47;5030636;28;20540;-49
2022/04/13 07:03:59;;;;;;;5.75;1.25;;;;;;;9.18;52.24;102243.34;5030416;28;20025;-49
2022/04/13 07:06:25;;;;;;;3.55;1.10;;;;;;;9.06;51.91;102241.97;5031106;28;20040;-46
2022/04/13 07:08:51;;;;;;;5.05;1.30;;;;;;;9.16;51.71;102248.84;5036080;28;20396;-47
2022/04/13 07:11:17;;;;;;;1.92;1.02;;;;;;;9.06;52.77;102252.66;5034777;28;20033;-50
2022/04/13 07:13:43;;;;;;;2.90;1.08;;;;;;;9.05;53.26;102256.31;5035293;28;20479;-49
2022/04/13 07:16:09;;;;;;;4.40;1.05;;;;;;;8.93;53.13;102253.09;5034678;28;20047;-47
2022/04/13 07:18:36;;;;;;;4.32;1.05;;;;;;;8.87;53.24;102253.72;5033624;28;20021;-48
2022/04/13 07:21:03;;;;;;;2.60;1.40;;;;;;;8.92;53.88;102252.25;5034142;28;20120;-50
2022/04/13 07:23:30;;;;;;;6.15;1.20;;;;;;;8.91;53.17;102257.75;5035152;28;20026;-50
2022/04/13 07:25:56;;;;;;;4.68;1.38;;;;;;;9.02;53.97;102246.78;5034636;28;20029;-49
2022/04/13 07:28:22;;;;;;;5.00;1.33;;;;;;;8.84;54.31;102243.38;5035378;28;20558;-50
2022/04/13 07:30:49;;;;;;;7.72;1.20;;;;;;;8.57;55.25;102245.25;5034405;28;20120;-48
2022/04/13 07:33:15;;;;;;;7.30;1.58;;;;;;;8.61;55.39;102243.13;5034713;28;20079;-48
2022/04/13 07:35:42;;;;;;;3.35;1.27;;;;;;;8.66;54.57;102246.97;5033894;28;20037;-47
2022/04/13 07:38:08;;;;;;;3.55;1.10;;;;;;;8.75;54.67;102249.69;5035050;28;20033;-50
2022/04/13 07:40:34;;;;;;;3.70;1.10;;;;;;;8.66;54.54;102251.44;5034360;28;20037;-51
2022/04/13 07:43:00;;;;;;;2.67;1.15;;;;;;;8.57;55.35;102257.75;5034736;28;20022;-50
2022/04/13 07:45:27;;;;;;;8.57;1.50;;;;;;;8.55;55.02;102260.59;5034215;28;20112;-48
2022/04/13 07:47:53;;;;;;;4.28;1.45;;;;;;;8.50;54.70;102268.22;5034822;28;20033;-47
2022/04/13 07:50:19;;;;;;;5.47;1.70;;;;;;;8.67;54.51;102267.34;5033377;28;20044;-49
2022/04/13 07:52:45;;;;;;;4.70;1.13;;;;;;;8.48;54.67;102272.88;5034380;28;20041;-49
2022/04/13 07:55:12;;;;;;;5.00;1.20;;;;;;;8.23;55.34;102279.84;5033192;28;20555;-49
2022/04/13 07:57:39;;;;;;;3.30;1.05;;;;;;;8.14;55.98;102281.59;5033995;28;20033;-50
2022/04/13 08:00:09;;;;;;;5.78;1.83;;;;;;;8.31;55.52;102289.72;5034812;28;20460;-50
2022/04/13 08:02:37;;;;;;;5.15;1.63;;;;;;;8.35;55.08;102280.44;5033311;28;20033;-49
2022/04/13 08:05:04;;;;;;;4.40;1.10;;;;;;;8.39;55.26;102281.84;5033822;28;20033;-47
2022/04/13 08:07:30;;;;;;;2.90;1.15;;;;;;;8.34;55.55;102281.44;5033964;28;20424;-46
2022/04/13 08:09:56;;;;;;;5.55;1.52;;;;;;;8.06;56.21;102284.22;5034123;28;20029;-48
2022/04/13 08:12:26;;;;;;;6.78;1.30;;;;;;;8.07;56.61;102293.88;5032851;28;20033;-46
2022/04/13 08:14:52;;;;;;;3.55;1.40;;;;;;;8.39;56.36;102293.34;5033069;28;20025;-47
2022/04/13 08:17:18;;;;;;;4.22;1.40;;;;;;;8.38;56.30;102293.47;5033470;28;20033;-48
2022/04/13 08:19:45;;;;;;;7.20;1.33;;;;;;;8.24;56.52;102294.03;5033117;28;20029;-46
2022/04/13 08:22:11;;;;;;;4.95;1.33;;;;;;;8.11;57.16;102295.28;5019558;28;20037;-48
2022/04/13 08:24:37;;;;;;;6.13;1.42;;;;;;;8.10;57.23;102298.06;5025357;28;20029;-46
2022/04/13 08:27:05;;;;;;;1.88;1.15;;;;;;;7.92;57.54;102284.75;5033409;28;20078;-46
2022/04/13 08:29:31;;;;;;;5.60;1.30;;;;;;;7.89;57.67;102296.56;5033592;28;20037;-47
2022/04/13 08:31:57;;;;;;;7.78;1.52;;;;;;;8.07;57.51;102295.72;5033121;28;20025;-49
2022/04/13 08:34:23;;;;;;;3.78;1.05;;;;;;;8.11;57.65;102297.09;5033853;28;20413;-45
2022/04/13 08:36:50;;;;;;;6.82;1.60;;;;;;;8.00;57.67;102287.50;5033257;28;20477;-46
2022/04/13 08:39:16;;;;;;;5.68;1.20;;;;;;;8.14;57.33;102297.59;5034052;28;20029;-46
2022/04/13 08:42:12;;;;;;;4.45;1.35;;;;;;;8.09;58.02;102291.06;5033211;28;20030;-47
2022/04/13 08:44:48;;;;;;;6.15;1.70;;;;;;;7.94;58.00;102278.28;5024002;28;20037;-45
2022/04/13 08:47:21;;;;;;;4.32;1.30;;;;;;;8.02;57.96;102280.19;5033664;28;20029;-45
2022/04/13 08:49:50;;;;;;;5.40;1.30;;;;;;;7.97;57.86;102282.47;5033545;28;20053;-46
2022/04/13 08:52:39;;;;;;;5.25;1.20;;;;;;;8.06;57.81;102281.56;5031781;28;20071;-47
2022/04/13 08:55:11;;;;;;;8.00;1.75;;;;;;;8.13;57.18;102287.09;5032767;28;20083;-47
2022/04/13 08:57:41;;;;;;;6.68;1.17;;;;;;;8.12;57.65;102280.94;5032592;28;20037;-45
2022/04/13 09:00:15;;;;;;;3.38;1.10;;;;;;;8.14;57.89;102292.28;5032687;28;20112;-47
2022/04/13 09:03:04;;;;;;;2.97;1.13;;;;;;;8.16;57.18;102290.31;5032633;28;20030;-46
2022/04/13 09:05:33;;;;;;;2.80;1.17;;;;;;;8.13;57.57;102281.78;5032803;28;20099;-46
2022/04/13 09:08:12;;;;;;;2.97;1.00;;;;;;;8.03;58.26;102289.84;5032733;28;20053;-47
2022/04/13 09:10:41;;;;;;;5.95;1.35;;;;;;;8.15;58.24;102280.59;5033606;28;20030;-47
2022/04/13 09:13:11;;;;;;;4.63;1.13;;;;;;;8.14;57.86;102286.09;5032445;28;20030;-47
2022/04/13 09:15:42;;;;;;;6.13;1.23;;;;;;;8.02;58.54;102276.69;5033079;28;20460;-47
2022/04/13 09:18:09;;;;;;;4.50;1.42;;;;;;;8.14;57.89;102281.59;5032648;28;20033;-51
2022/04/13 09:20:36;;;;;;;3.45;1.35;;;;;;;8.20;57.72;102282.81;5031275;28;20473;-50
2022/04/13 09:23:04;;;;;;;3.97;1.20;;;;;;;8.29;57.38;102292.56;5017164;28;20076;-48
2022/04/13 09:25:32;;;;;;;5.38;0.98;;;;;;;8.28;57.05;102287.41;5032177;28;20026;-50
2022/04/13 09:27:59;;;;;;;2.72;1.20;;;;;;;8.26;57.20;102292.88;5033434;28;20043;-50
2022/04/13 09:30:26;;;;;;;4.50;1.10;;;;;;;8.38;57.41;102297.00;5030629;28;20037;-48
2022/04/13 09:32:53;;;;;;;4.40;1.50;;;;;;;8.37;57.37;102281.13;5031773;28;20033;-50
2022/04/13 09:35:20;;;;;;;7.10;1.35;;;;;;;8.22;57.33;102278.19;5054024;22;20051;-50
2022/04/13 09:37:47;;;;;;;4.35;1.13;;;;;;;8.24;57.46;102276.19;5052290;28;20036;-46
2022/04/13 09:40:26;;;;;;;5.43;0.90;;;;;;;8.17;57.28;102275.97;5052159;28;20399;-49
2022/04/13 09:42:52;;;;;;;6.00;1.65;;;;;;;8.21;57.43;102269.31;5032553;28;20036;-47
2022/04/13 09:45:20;;;;;;;3.42;1.33;;;;;;;8.14;57.71;102262.94;5046406;28;20025;-47
2022/04/13 09:47:46;;;;;;;1.42;0.75;;;;;;;8.10;57.43;102266.91;5051991;28;20037;-46
2022/04/13 09:50:25;;;;;;;5.75;1.55;;;;;;;8.13;57.68;102266.59;5052671;28;20028;-46
2022/04/13 09:52:57;;;;;;;5.18;1.10;;;;;;;8.04;57.95;102267.53;5051850;28;20550;-47
2022/04/13 09:55:25;;;;;;;4.57;1.40;;;;;;;7.96;58.23;102261.31;5050913;28;20037;-46
2022/04/13 09:58:03;;;;;;;3.22;1.48;;;;;;;7.96;58.81;102263.97;5041804;28;20041;-46
2022/04/13 10:00:30;;;;;;;2.20;0.95;;;;;;;7.91;59.67;102259.09;5050862;28;20480;-45
2022/04/13 10:03:10;;;;;;;6.88;1.60;;;;;;;7.96;59.51;102250.63;5052376;28;20060;-46
2022/04/13 10:05:36;;;;;;;4.80;1.55;;;;;;;6.97;61.84;102256.78;5051693;28;20032;-50
2022/04/13 10:08:08;;;;;;;4.20;1.50;;;;;;;7.21;60.95;102252.72;5037757;28;20710;-46
2022/04/13 10:10:35;;;;;;;4.38;1.20;;;;;;;7.24;60.87;102265.75;5050301;28;20072;-46
2022/04/13 10:13:02;;;;;;;2.95;1.42;;;;;;;7.17;61.16;102267.34;5050093;28;20034;-46
2022/04/13 10:15:28;;;;;;;7.13;1.48;;;;;;;6.68;62.83;102272.03;5051986;28;20033;-45
2022/04/13 10:18:00;;;;;;;5.47;1.40;;;;;;;7.27;61.24;102278.75;5050603;28;20025;-46
2022/04/13 10:20:42;;;;;;;4.65;1.63;;;;;;;7.46;60.48;102268.00;5050584;28;20075;-46
2022/04/13 10:23:09;;;;;;;3.55;1.25;;;;;;;7.27;60.58;102273.44;5050337;28;20129;-48
2022/04/13 10:25:35;;;;;;;6.57;1.27;;;;;;;7.27;60.23;102263.63;5051806;28;20462;-47
2022/04/13 10:28:02;;;;;;;4.25;1.08;;;;;;;7.13;61.13;102278.28;5049944;28;20037;-47
2022/04/13 10:30:31;;;;;;;4.88;1.02;;;;;;;7.20;60.72;102278.53;5051787;28;20087;-45
2022/04/13 10:33:07;;;;;;;4.15;1.23;;;;;;;7.01;61.39;102291.94;5049883;28;20372;-45
2022/04/13 10:35:37;;;;;;;5.90;1.20;;;;;;;7.11;61.15;102285.59;5051556;28;20045;-47
2022/04/13 10:38:03;;;;;;;2.00;0.82;;;;;;;7.28;60.22;102288.44;5050417;28;20506;-46
2022/04/13 10:40:32;;;;;;;2.50;1.30;;;;;;;7.46;60.03;102289.31;5051511;28;20377;-45
2022/04/13 10:43:01;;;;;;;5.22;1.13;;;;;;;7.40;59.92;102290.75;5047910;28;20082;-50
2022/04/13 10:45:33;;;;;;;5.95;1.02;;;;;;;6.96;61.39;102296.88;5033229;28;20048;-47
2022/04/13 10:48:08;;;;;;;5.00;1.30;;;;;;;6.21;64.45;102298.59;5050819;28;20489;-49
2022/04/13 10:50:54;;;;;;;7.45;1.77;;;;;;;6.31;64.48;102302.91;5049188;28;20437;-45
2022/04/13 10:53:24;;;;;;;6.10;1.10;;;;;;;6.58;63.14;102299.50;5049848;28;20544;-49
2022/04/13 10:56:11;;;;;;;7.43;1.42;;;;;;;6.07;64.93;102300.72;5047808;28;20025;-49
2022/04/13 10:59:11;;;;;;;4.90;2.33;;;;;;;6.45;63.70;102295.50;5049478;28;20032;-49
2022/04/13 11:01:51;;;;;;;5.40;1.38;;;;;;;6.64;62.99;102284.78;5031782;28;20022;-48
2022/04/13 11:04:17;;;;;;;7.75;1.85;;;;;;;6.73;62.67;102291.06;5049100;28;20082;-48
2022/04/13 11:06:46;;;;;;;7.10;1.33;;;;;;;6.85;62.15;102295.22;5051651;28;20032;-46
2022/04/13 11:09:26;;;;;;;5.13;1.23;;;;;;;6.63;62.97;102301.75;5051264;28;20028;-48
2022/04/13 11:11:55;;;;;;;3.70;1.30;;;;;;;6.09;64.67;102295.25;5051389;28;20078;-48
2022/04/13 11:14:23;;;;;;;6.97;1.63;;;;;;;5.88;65.90;102287.38;5051049;28;20032;-46
2022/04/13 11:17:10;;;;;;;7.00;2.13;;;;;;;6.12;65.04;102287.00;5035267;28;20083;-46
2022/04/13 11:19:36;;;;;;;3.80;1.20;;;;;;;6.25;64.30;102281.38;5031539;28;20492;-46
2022/04/13 11:22:02;;;;;;;4.68;1.33;;;;;;;6.49;63.68;102281.72;5031543;28;20017;-50
2022/04/13 11:24:35;;;;;;;6.57;1.17;;;;;;;6.49;63.68;102278.25;5041327;28;20102;-50
2022/04/13 11:27:03;;;;;;;1.80;1.10;;;;;;;6.30;64.37;102279.13;5051346;28;20066;-47
2022/04/13 11:29:37;;;;;;;4.78;1.25;;;;;;;6.16;65.17;102276.91;5051147;28;20067;-46
2022/04/13 11:32:04;;;;;;;3.97;1.27;;;;;;;5.86;66.21;102281.38;5051396;28;20021;-46
2022/04/13 11:34:51;;;;;;;3.20;0.80;;;;;;;5.71;67.20;102272.97;5050767;28;20049;-46
2022/04/13 11:37:19;;;;;;;3.70;1.38;;;;;;;5.26;68.48;102273.47;5051098;28;20086;-48